createdAt,value
2023-03-21T00:00:21.979Z,3.60
2023-03-21T00:02:49.266Z,3.63
2023-03-21T00:05:29.477Z,3.40
2023-03-21T00:08:06.500Z,2.90
2023-03-21T00:10:42.738Z,2.83
2023-03-21T00:13:36.179Z,3.10
2023-03-21T00:16:14.712Z,3.13
2023-03-21T00:18:55.966Z,2.93
2023-03-21T00:24:21.395Z,2.87
2023-03-21T00:26:52.072Z,2.53
2023-03-21T00:29:22.908Z,2.70
2023-03-21T00:31:51.749Z,2.40
2023-03-21T00:34:31.768Z,2.50
2023-03-21T00:37:12.292Z,2.50
2023-03-21T00:39:42.890Z,2.50
2023-03-21T00:42:12.556Z,2.30
2023-03-21T00:44:42.333Z,2.70
2023-03-21T00:47:19.955Z,2.50
2023-03-21T00:49:49.923Z,2.40
2023-03-21T00:52:39.887Z,2.30
2023-03-21T00:55:17.350Z,2.13
2023-03-21T00:57:56.300Z,2.40
2023-03-21T01:00:29.231Z,2.53
2023-03-21T01:03:08.572Z,3.03
2023-03-21T01:08:53.875Z,2.43
2023-03-21T01:11:30.953Z,2.30
2023-03-21T01:14:18.589Z,2.40
2023-03-21T01:16:54.203Z,2.70
2023-03-21T01:19:44.709Z,1.93
2023-03-21T01:22:18.296Z,2.50
2023-03-21T01:24:55.198Z,2.47
2023-03-21T01:27:28.190Z,2.27
2023-03-21T01:29:59.823Z,2.07
2023-03-21T01:32:36.028Z,2.00
2023-03-21T01:35:13.583Z,2.50
2023-03-21T01:37:52.142Z,2.33
2023-03-21T01:40:28.195Z,2.40
2023-03-21T01:42:57.566Z,2.30
2023-03-21T01:46:04.209Z,2.80
2023-03-21T01:48:34.280Z,2.40
2023-03-21T01:51:04.832Z,2.30
2023-03-21T01:53:42.543Z,2.53
2023-03-21T01:56:19.459Z,2.43
2023-03-21T01:58:49.882Z,3.47
2023-03-21T02:01:20.290Z,3.10
2023-03-21T02:03:52.290Z,3.37
2023-03-21T02:06:37.648Z,2.40
2023-03-21T02:09:13.643Z,2.23
2023-03-21T02:11:46.785Z,2.37
2023-03-21T02:14:28.930Z,2.60
2023-03-21T02:17:25.182Z,2.80
2023-03-21T02:20:23.149Z,2.13
2023-03-21T02:23:25.025Z,2.63
2023-03-21T02:26:28.475Z,2.70
2023-03-21T02:29:40.847Z,2.60
2023-03-21T02:32:47.272Z,2.37
2023-03-21T02:35:29.394Z,2.70
2023-03-21T02:38:21.588Z,3.00
2023-03-21T02:41:20.175Z,2.80
2023-03-21T02:44:12.308Z,2.63
2023-03-21T02:47:07.185Z,3.00
2023-03-21T02:50:02.377Z,3.90
2023-03-21T02:52:39.487Z,4.13
2023-03-21T02:55:20.735Z,4.33
2023-03-21T02:57:54.069Z,3.70
2023-03-21T03:00:27.959Z,3.67
2023-03-21T03:03:08.634Z,3.90
2023-03-21T03:05:45.057Z,3.00
2023-03-21T03:09:02.158Z,3.30
2023-03-21T03:11:43.756Z,2.90
2023-03-21T03:15:03.468Z,3.30
2023-03-21T03:18:09.038Z,3.20
2023-03-21T03:21:20.966Z,2.90
2023-03-21T03:24:03.802Z,2.47
2023-03-21T03:26:52.591Z,3.00
2023-03-21T03:29:22.498Z,3.50
2023-03-21T03:32:13.926Z,2.37
2023-03-21T03:34:52.851Z,2.90
2023-03-21T03:40:12.514Z,2.70
2023-03-21T03:42:53.277Z,2.60
2023-03-21T03:45:46.583Z,2.30
2023-03-21T03:48:28.956Z,2.60
2023-03-21T03:51:14.629Z,2.53
2023-03-21T03:53:54.631Z,2.63
2023-03-21T03:56:26.353Z,3.73
2023-03-21T03:58:57.203Z,2.80
2023-03-21T04:01:26.587Z,3.40
2023-03-21T04:04:12.580Z,2.70
2023-03-21T04:06:42.097Z,3.33
2023-03-21T04:09:20.429Z,3.00
2023-03-21T04:11:52.629Z,2.90
2023-03-21T04:14:35.555Z,2.70
2023-03-21T04:17:08.637Z,2.60
2023-03-21T04:19:39.719Z,2.80
2023-03-21T04:22:09.299Z,2.93
2023-03-21T04:24:46.397Z,2.43
2023-03-21T04:27:15.010Z,2.83
2023-03-21T04:29:46.556Z,2.90
2023-03-21T04:32:22.154Z,2.70
2023-03-21T04:34:54.838Z,3.00
2023-03-21T04:37:24.762Z,2.80
2023-03-21T04:39:54.482Z,2.87
2023-03-21T04:42:23.847Z,2.80
2023-03-21T04:44:53.272Z,2.87
2023-03-21T04:47:23.788Z,3.23
2023-03-21T04:49:54.730Z,2.70
2023-03-21T04:52:25.490Z,2.90
2023-03-21T04:54:54.818Z,2.60
2023-03-21T04:57:22.392Z,2.80
2023-03-21T04:59:53.027Z,2.97
2023-03-21T05:02:21.651Z,3.00
2023-03-21T05:04:48.610Z,3.27
2023-03-21T05:07:16.644Z,3.20
2023-03-21T05:09:45.044Z,3.00
2023-03-21T05:12:13.743Z,2.60
2023-03-21T05:14:42.588Z,2.90
2023-03-21T05:17:17.756Z,3.03
2023-03-21T05:19:46.436Z,2.60
2023-03-21T05:22:20.892Z,2.83
2023-03-21T05:24:54.272Z,2.40
2023-03-21T05:27:34.455Z,2.87
2023-03-21T05:30:23.278Z,3.00
2023-03-21T05:32:51.617Z,2.83
2023-03-21T05:35:24.493Z,2.97
2023-03-21T05:38:00.888Z,3.10
2023-03-21T05:40:30.572Z,2.67
2023-03-21T05:42:58.920Z,3.10
2023-03-21T05:45:28.028Z,2.80
2023-03-21T05:47:56.260Z,3.20
2023-03-21T05:50:32.470Z,3.00
2023-03-21T05:53:01.718Z,3.33
2023-03-21T05:55:30.466Z,2.30
2023-03-21T05:57:58.895Z,2.77
2023-03-21T06:00:31.292Z,2.83
2023-03-21T06:03:06.488Z,2.70
2023-03-21T06:05:43.624Z,2.80
2023-03-21T06:08:21.011Z,2.77
2023-03-21T06:10:58.806Z,2.87
2023-03-21T06:13:29.922Z,2.73
2023-03-21T06:15:57.257Z,2.97
2023-03-21T06:18:37.163Z,2.83
2023-03-21T06:21:04.492Z,3.00
2023-03-21T06:23:34.254Z,2.80
2023-03-21T06:26:04.648Z,2.60
2023-03-21T06:28:34.085Z,2.47
2023-03-21T06:31:04.377Z,2.53
2023-03-21T06:33:41.052Z,2.83
2023-03-21T06:36:16.777Z,2.58
2023-03-21T06:38:55.213Z,2.55
2023-03-21T06:41:23.832Z,2.67
2023-03-21T06:43:55.535Z,2.60
2023-03-21T06:46:31.746Z,2.58
2023-03-21T06:49:00.430Z,2.40
2023-03-21T06:51:30.092Z,2.30
2023-03-21T06:53:58.307Z,2.33
2023-03-21T06:56:26.551Z,2.45
2023-03-21T06:59:04.210Z,2.75
2023-03-21T07:01:32.679Z,2.80
2023-03-21T07:04:03.037Z,2.85
2023-03-21T07:06:33.112Z,2.70
2023-03-21T07:09:04.398Z,3.00
2023-03-21T07:11:33.756Z,2.80
2023-03-21T07:14:02.295Z,2.83
2023-03-21T07:16:33.383Z,2.80
2023-03-21T07:19:11.206Z,3.10
2023-03-21T07:21:48.208Z,2.65
2023-03-21T07:24:17.130Z,3.10
2023-03-21T07:26:45.182Z,2.92
2023-03-21T07:29:14.786Z,2.63
2023-03-21T07:31:41.884Z,2.97
2023-03-21T07:34:10.713Z,3.10
2023-03-21T07:36:39.505Z,2.38
2023-03-21T07:39:11.726Z,2.53
2023-03-21T07:41:38.794Z,3.00
2023-03-21T07:44:16.734Z,2.17
2023-03-21T07:46:55.818Z,2.40
2023-03-21T07:49:25.361Z,2.05
2023-03-21T07:51:53.830Z,2.35
2023-03-21T07:54:23.384Z,2.63
2023-03-21T07:56:53.769Z,3.10
2023-03-21T07:59:23.794Z,2.83
2023-03-21T08:01:56.079Z,3.08
2023-03-21T08:04:25.330Z,3.90
2023-03-21T08:06:55.038Z,3.40
2023-03-21T08:09:24.281Z,3.83
2023-03-21T08:11:55.343Z,4.68
2023-03-21T08:14:23.705Z,4.38
2023-03-21T08:16:50.907Z,4.70
2023-03-21T08:19:24.200Z,4.28
2023-03-21T08:21:52.366Z,4.65
2023-03-21T08:24:20.970Z,4.80
2023-03-21T08:26:49.571Z,4.20
2023-03-21T08:29:27.033Z,4.40
2023-03-21T08:31:56.191Z,4.47
2023-03-21T08:34:25.469Z,4.20
2023-03-21T08:36:54.851Z,4.20
2023-03-21T08:39:29.732Z,4.07
2023-03-21T08:41:58.241Z,3.90
2023-03-21T08:44:34.268Z,3.42
2023-03-21T08:47:02.513Z,4.03
2023-03-21T08:49:32.149Z,3.58
2023-03-21T08:52:02.920Z,3.70
2023-03-21T08:54:32.346Z,3.22
2023-03-21T08:57:02.092Z,3.10
2023-03-21T08:59:30.593Z,2.50
2023-03-21T09:02:00.781Z,2.63
2023-03-21T09:04:28.035Z,2.30
2023-03-21T09:07:02.325Z,2.20
2023-03-21T09:10:08.163Z,2.38
2023-03-21T09:12:52.469Z,2.38
2023-03-21T09:15:24.934Z,1.98
2023-03-21T09:17:55.566Z,2.15
2023-03-21T09:20:33.095Z,1.70
2023-03-21T09:23:02.072Z,1.65
2023-03-21T09:25:34.222Z,1.50
2023-03-21T09:28:03.272Z,1.85
2023-03-21T09:30:35.893Z,1.92
2023-03-21T09:33:11.967Z,1.95
2023-03-21T09:35:50.653Z,2.13
2023-03-21T09:38:21.100Z,1.90
2023-03-21T09:41:14.756Z,1.90
2023-03-21T09:44:28.076Z,1.80
2023-03-21T09:47:20.272Z,1.77
2023-03-21T09:50:16.426Z,1.90
2023-03-21T09:53:16.129Z,1.67
2023-03-21T09:55:47.369Z,1.50
2023-03-21T09:58:47.368Z,1.80
2023-03-21T10:01:37.483Z,1.60
2023-03-21T10:04:19.449Z,1.60
2023-03-21T10:06:58.731Z,1.60
2023-03-21T10:09:35.902Z,1.70
2023-03-21T10:12:13.009Z,1.92
2023-03-21T10:14:50.012Z,1.50
2023-03-21T10:17:44.285Z,1.50
2023-03-21T10:20:36.027Z,1.88
2023-03-21T10:23:13.879Z,15.25
2023-03-21T10:25:49.776Z,7.30
2023-03-21T10:28:22.401Z,11.63
2023-03-21T10:31:07.402Z,4.70
2023-03-21T10:33:46.538Z,4.85
2023-03-21T10:36:43.223Z,2.22
2023-03-21T10:39:48.046Z,2.33
2023-03-21T10:42:34.424Z,8.23
2023-03-21T10:45:02.914Z,4.70
2023-03-21T10:47:36.428Z,3.17
2023-03-21T10:50:10.114Z,4.15
2023-03-21T10:52:52.772Z,1.50
2023-03-21T10:55:33.501Z,5.00
2023-03-21T10:58:21.140Z,3.15
2023-03-21T11:00:55.199Z,1.77
2023-03-21T11:03:30.993Z,2.17
2023-03-21T11:06:27.226Z,3.70
2023-03-21T11:09:19.617Z,4.18
2023-03-21T11:12:07.503Z,2.30
2023-03-21T11:14:56.830Z,1.27
2023-03-21T11:17:34.460Z,2.45
2023-03-21T11:20:06.522Z,2.45
2023-03-21T11:22:47.276Z,1.15
2023-03-21T11:25:38.462Z,1.10
2023-03-21T11:28:15.940Z,1.10
2023-03-21T11:31:12.837Z,1.30
2023-03-21T11:33:55.183Z,1.50
2023-03-21T11:36:23.837Z,1.40
2023-03-21T11:39:00.330Z,1.08
2023-03-21T11:41:35.364Z,1.15
2023-03-21T11:44:03.922Z,1.40
2023-03-21T11:46:49.015Z,1.30
2023-03-21T11:49:18.162Z,1.17
2023-03-21T11:52:14.479Z,1.30
2023-03-21T11:55:12.384Z,1.05
2023-03-21T11:58:17.077Z,1.30
2023-03-21T12:01:15.137Z,1.40
2023-03-21T12:04:28.143Z,1.60
2023-03-21T12:07:31.492Z,1.50
2023-03-21T12:10:14.439Z,1.77
2023-03-21T12:13:24.172Z,1.20
2023-03-21T12:16:30.197Z,1.35
2023-03-21T12:19:40.160Z,1.55
2023-03-21T12:22:56.853Z,1.15
2023-03-21T12:25:56.633Z,1.20
2023-03-21T12:28:49.227Z,1.20
2023-03-21T12:31:38.415Z,1.30
2023-03-21T12:34:44.558Z,1.00
2023-03-21T12:37:32.926Z,1.23
2023-03-21T12:40:24.999Z,1.23
2023-03-21T12:43:12.258Z,1.13
2023-03-21T12:45:47.642Z,1.20
2023-03-21T12:48:58.435Z,1.35
2023-03-21T12:51:33.202Z,1.27
2023-03-21T12:54:26.781Z,1.30
2023-03-21T12:57:16.077Z,1.52
2023-03-21T13:00:02.036Z,1.10
2023-03-21T13:03:01.071Z,1.20
2023-03-21T13:05:38.705Z,1.20
2023-03-21T13:08:29.987Z,1.40
2023-03-21T13:11:04.504Z,1.20
2023-03-21T13:13:55.961Z,1.52
2023-03-21T13:16:42.434Z,1.30
2023-03-21T13:19:28.603Z,1.55
2023-03-21T13:22:23.238Z,1.23
2023-03-21T13:25:30.356Z,1.30
2023-03-21T13:28:07.136Z,1.35
2023-03-21T13:30:37.641Z,1.30
2023-03-21T13:33:14.863Z,1.25
2023-03-21T13:35:45.227Z,1.30
2023-03-21T13:38:38.268Z,1.27
2023-03-21T13:41:15.932Z,1.10
2023-03-21T13:44:30.203Z,1.20
2023-03-21T13:47:07.317Z,1.15
2023-03-21T13:49:39.705Z,1.20
2023-03-21T13:52:28.223Z,1.25
2023-03-21T13:54:58.346Z,1.40
2023-03-21T13:57:32.804Z,1.30
2023-03-21T14:00:33.534Z,1.30
2023-03-21T14:03:18.259Z,1.23
2023-03-21T14:05:55.035Z,1.20
2023-03-21T14:08:36.882Z,1.20
2023-03-21T14:11:13.126Z,0.95
2023-03-21T14:13:50.965Z,1.25
2023-03-21T14:16:25.408Z,1.30
2023-03-21T14:18:57.067Z,1.10
2023-03-21T14:21:31.853Z,1.30
2023-03-21T14:24:14.304Z,1.75
2023-03-21T14:26:52.078Z,1.20
2023-03-21T14:29:41.592Z,1.20
2023-03-21T14:32:24.887Z,1.20
2023-03-21T14:34:56.517Z,1.35
2023-03-21T14:37:42.689Z,1.05
2023-03-21T14:40:31.818Z,1.20
2023-03-21T14:43:19.046Z,1.40
2023-03-21T14:45:57.249Z,1.20
2023-03-21T14:48:36.062Z,1.40
2023-03-21T14:51:12.913Z,1.67
2023-03-21T14:53:52.487Z,1.20
2023-03-21T14:56:27.896Z,1.30
2023-03-21T14:58:56.806Z,1.20
2023-03-21T15:01:35.754Z,1.30
2023-03-21T15:04:09.382Z,1.30
2023-03-21T15:06:52.924Z,1.30
2023-03-21T15:09:24.458Z,1.40
2023-03-21T15:11:56.811Z,1.40
2023-03-21T15:14:34.389Z,1.50
2023-03-21T15:17:06.671Z,1.33
2023-03-21T15:19:37.552Z,1.20
2023-03-21T15:22:39.221Z,1.40
2023-03-21T15:25:14.095Z,1.40
2023-03-21T15:27:43.954Z,1.38
2023-03-21T15:30:28.877Z,1.27
2023-03-21T15:32:59.895Z,1.30
2023-03-21T15:35:41.197Z,1.20
2023-03-21T15:38:46.470Z,1.40
2023-03-21T15:41:40.761Z,1.30
2023-03-21T15:44:14.984Z,1.50
2023-03-21T15:46:51.482Z,1.10
2023-03-21T15:49:31.216Z,1.20
2023-03-21T15:52:16.338Z,1.17
2023-03-21T15:54:50.957Z,1.08
2023-03-21T15:57:33.857Z,1.30
2023-03-21T16:00:28.277Z,1.40
2023-03-21T16:03:02.638Z,1.20
2023-03-21T16:05:36.824Z,1.10
2023-03-21T16:08:27.491Z,1.10
2023-03-21T16:11:14.379Z,1.20
2023-03-21T16:13:41.379Z,1.30
2023-03-21T16:16:22.208Z,1.48
2023-03-21T16:18:50.464Z,1.30
2023-03-21T16:21:26.893Z,1.38
2023-03-21T16:23:54.839Z,1.38
2023-03-21T16:26:32.544Z,1.60
2023-03-21T16:29:05.125Z,1.75
2023-03-21T16:31:37.633Z,1.30
2023-03-21T16:34:08.549Z,1.90
2023-03-21T16:36:43.393Z,1.40
2023-03-21T16:39:23.662Z,1.50
2023-03-21T16:42:01.861Z,1.47
2023-03-21T16:44:30.170Z,1.40
2023-03-21T16:47:06.166Z,1.50
2023-03-21T16:49:34.461Z,1.70
2023-03-21T16:52:04.844Z,1.57
2023-03-21T16:54:33.413Z,1.50
2023-03-21T16:57:01.379Z,1.50
2023-03-21T16:59:30.133Z,1.40
2023-03-21T17:01:58.223Z,1.50
2023-03-21T17:04:28.105Z,1.33
2023-03-21T17:06:57.883Z,1.70
2023-03-21T17:09:29.185Z,1.70
2023-03-21T17:12:00.176Z,1.30
2023-03-21T17:14:28.620Z,1.40
2023-03-21T17:16:57.516Z,1.73
2023-03-21T17:19:27.955Z,1.50
2023-03-21T17:21:57.156Z,1.50
2023-03-21T17:24:26.780Z,1.53
2023-03-21T17:26:55.938Z,1.53
2023-03-21T17:29:25.475Z,1.73
2023-03-21T17:31:54.216Z,1.57
2023-03-21T17:34:21.590Z,1.60
2023-03-21T17:36:49.723Z,1.50
2023-03-21T17:39:28.323Z,1.60
2023-03-21T17:41:57.290Z,1.60
2023-03-21T17:44:24.288Z,2.13
2023-03-21T17:46:53.138Z,2.00
2023-03-21T17:49:21.289Z,1.90
2023-03-21T17:51:50.643Z,2.00
2023-03-21T17:54:19.190Z,1.70
2023-03-21T17:56:50.152Z,2.10
2023-03-21T17:59:19.443Z,1.90
2023-03-21T18:01:47.807Z,1.90
2023-03-21T18:04:20.162Z,2.10
2023-03-21T18:06:49.567Z,2.10
2023-03-21T18:09:21.536Z,2.40
2023-03-21T18:11:52.059Z,2.57
2023-03-21T18:14:27.976Z,2.87
2023-03-21T18:16:55.881Z,2.60
2023-03-21T18:19:26.085Z,2.53
2023-03-21T18:21:54.201Z,2.53
2023-03-21T18:24:22.804Z,2.77
2023-03-21T18:26:51.426Z,2.50
2023-03-21T18:32:08.828Z,2.27
2023-03-21T18:34:39.397Z,2.43
2023-03-21T18:37:13.356Z,2.30
2023-03-21T18:39:46.356Z,2.40
2023-03-21T18:42:20.540Z,2.13
2023-03-21T18:44:50.940Z,2.10
2023-03-21T18:47:21.682Z,1.90
2023-03-21T18:50:12.784Z,2.00
2023-03-21T18:52:39.088Z,2.00
2023-03-21T18:55:09.801Z,1.90
2023-03-21T18:57:40.726Z,2.00
2023-03-21T19:00:15.874Z,2.03
2023-03-21T19:02:51.913Z,2.17
2023-03-21T19:05:22.758Z,2.20
2023-03-21T19:07:53.643Z,2.20
2023-03-21T19:10:24.356Z,2.43
2023-03-21T19:12:55.742Z,2.43
2023-03-21T19:15:26.566Z,2.30
2023-03-21T19:20:48.520Z,2.40
2023-03-21T19:23:18.833Z,2.27
2023-03-21T19:25:47.724Z,2.43
2023-03-21T19:28:16.335Z,2.30
2023-03-21T19:30:50.232Z,2.27
2023-03-21T19:33:20.793Z,2.30
2023-03-21T19:36:08.970Z,2.20
2023-03-21T19:38:39.399Z,2.13
2023-03-21T19:41:07.404Z,2.40
2023-03-21T19:43:40.000Z,2.33
2023-03-21T19:46:09.868Z,2.50
2023-03-21T19:48:38.713Z,2.73
2023-03-21T19:51:26.708Z,2.77
2023-03-21T19:53:56.880Z,2.60
2023-03-21T19:56:28.377Z,2.50
2023-03-21T19:58:56.673Z,2.53
2023-03-21T20:01:48.649Z,2.57
2023-03-21T20:04:20.481Z,2.57
2023-03-21T20:06:53.817Z,2.73
2023-03-21T20:09:49.808Z,2.60
2023-03-21T20:12:14.984Z,3.30
2023-03-21T20:14:49.294Z,2.77
2023-03-21T20:17:20.552Z,2.63
2023-03-21T20:19:50.487Z,3.10
2023-03-21T20:22:27.177Z,2.50
2023-03-21T20:25:05.927Z,2.60
2023-03-21T20:27:45.951Z,2.80
2023-03-21T20:30:17.286Z,2.60
2023-03-21T20:32:47.186Z,2.67
2023-03-21T20:35:29.572Z,2.80
2023-03-21T20:38:13.534Z,3.00
2023-03-21T20:40:44.562Z,2.90
2023-03-21T20:43:55.693Z,3.03
2023-03-21T20:46:05.832Z,2.97
2023-03-21T20:48:34.908Z,2.93
2023-03-21T20:52:00.257Z,3.03
2023-03-21T20:53:58.670Z,3.10
2023-03-21T20:56:34.505Z,3.00
2023-03-21T20:59:16.302Z,3.20
2023-03-21T21:01:50.819Z,3.17
2023-03-21T21:04:20.502Z,2.87
2023-03-21T21:06:52.766Z,2.97
2023-03-21T21:09:20.429Z,3.03
2023-03-21T21:12:06.113Z,3.07
2023-03-21T21:14:37.887Z,3.07
2023-03-21T21:17:24.438Z,3.00
2023-03-21T21:19:58.985Z,3.17
2023-03-21T21:22:30.504Z,3.27
2023-03-21T21:24:59.376Z,2.90
2023-03-21T21:27:31.277Z,3.10
2023-03-21T21:30:00.382Z,3.20
2023-03-21T21:32:29.924Z,2.80
2023-03-21T21:35:00.652Z,3.10
2023-03-21T21:37:29.768Z,2.60
2023-03-21T21:39:58.876Z,3.10
2023-03-21T21:42:29.090Z,2.47
2023-03-21T21:44:58.840Z,2.50
2023-03-21T21:47:25.850Z,2.90
2023-03-21T21:49:56.814Z,2.40
2023-03-21T21:52:26.016Z,2.87
2023-03-21T21:54:55.143Z,2.70
2023-03-21T21:57:32.771Z,2.70
2023-03-21T22:00:08.113Z,3.00
2023-03-21T22:02:36.385Z,2.80
2023-03-21T22:05:05.919Z,2.67
2023-03-21T22:07:34.344Z,2.80
2023-03-21T22:10:01.730Z,3.00
2023-03-21T22:12:29.773Z,3.00
2023-03-21T22:14:59.776Z,2.83
2023-03-21T22:17:30.133Z,2.73
2023-03-21T22:20:05.740Z,2.93
2023-03-21T22:22:40.054Z,2.77
2023-03-21T22:25:11.083Z,3.10
2023-03-21T22:27:39.592Z,3.10
2023-03-21T22:30:12.164Z,2.63
2023-03-21T22:32:41.600Z,3.37
2023-03-21T22:35:12.312Z,3.40
2023-03-21T22:37:44.213Z,3.03
2023-03-21T22:40:16.804Z,2.60
2023-03-21T22:42:46.864Z,3.10
2023-03-21T22:45:24.444Z,2.50
2023-03-21T22:47:52.971Z,2.80
2023-03-21T22:50:22.375Z,2.50
2023-03-21T22:52:51.165Z,2.60
2023-03-21T22:55:22.107Z,2.57
2023-03-21T22:57:52.631Z,2.40
2023-03-21T23:00:21.368Z,2.27
2023-03-21T23:02:49.745Z,2.40
2023-03-21T23:05:19.243Z,2.53
2023-03-21T23:07:53.399Z,2.33
2023-03-21T23:10:23.484Z,2.27
2023-03-21T23:12:53.864Z,2.43
2023-03-21T23:15:23.600Z,2.73
2023-03-21T23:17:53.050Z,3.07
2023-03-21T23:20:22.167Z,3.03
2023-03-21T23:22:58.420Z,3.03
2023-03-21T23:25:29.192Z,3.00
2023-03-21T23:27:59.048Z,2.50
2023-03-21T23:30:28.829Z,3.50
2023-03-21T23:32:58.360Z,2.33
2023-03-21T23:35:35.024Z,2.83
2023-03-21T23:38:06.201Z,2.70
2023-03-21T23:40:34.808Z,2.67
2023-03-21T23:43:06.997Z,2.67
2023-03-21T23:45:35.876Z,2.73
2023-03-21T23:48:04.966Z,2.70
2023-03-21T23:50:42.826Z,3.17
2023-03-21T23:53:11.914Z,2.50
2023-03-21T23:55:41.401Z,2.70
2023-03-21T23:58:09.966Z,3.23
